Airfield :
LOGIN :

Register | Disclaimer

   EN    FR    IT 

 










Legend :    VFR   Marginal VFR   IFR   Intensive IFR   Very Intensive IFR
Visi :
Ceiling :
>= 8 km
>= 3000ft
5 to 8 km
1000 to 3000 ft
1500m to 5 km
500 to 1000 ft
800 to 1500m
200 to 500 ft
< 800m
< 200 ft
Symbols :   Thunderstorms  Fog  Heavy snow  Heavy precipitations  Wind > 20 kt
SIGMETs :     Misc.  Thunderstorms  Icing  Turbulence  Mountain Waves  Volcanic Ashes






- Airport Elevation : 13 ft
- IATA code : SNR


LFRZ - St-Nazaire

CURRENT METAR :
  • 151230Z AUTO 33011KT 290V010 9999 FEW020 OVC070 09/05 Q1002 NOSIG

EXPIRED METARs :
  • 151200Z AUTO 33006KT 280V010 CAVOK 08/05 Q1002 NOSIG
  • 151130Z AUTO 33005KT 260V010 CAVOK 07/05 Q1003
  • 151100Z AUTO 34004KT 300V020 CAVOK 06/05 Q1003 NOSIG
  • 151030Z AUTO 36006KT CAVOK 05/04 Q1003 NOSIG
  • 151000Z AUTO 35005KT CAVOK 04/03 Q1003 NOSIG
  • 150930Z AUTO 34004KT 7000 NSC 02/02 Q1003 NOSIG

TAF TAF LFRZ
Valid from the 15 at 12:00 until the 16 at 12:00 UTC


151100Z 1512/1612 32005KT 9999 BKN050
BECMG 1512/1513 28008KT BKN020
BECMG 1518/1521 30010KT
TEMPO 1518/1610 4000 -RA BKN012



MET'MAP, your aeronautical weather chart ! - Copyright ORBIFLY December 2007 - Disclaimer

ORBIFLY MET'MAP TEAM :

Programming & Development : Alexandra Zaïnal
Concept & Development : Baudouin d'Aumeries
Co-Development & Prog : Marc-Olivier Méhu
Technical & hardware support : Manuel Goepfert

Contact : metmap@orbifly.com




SOURCES & CREDITS :

   NOAA